sensor_id;sensor_type;location;lat;lon;timestamp;temperature;humidity
30134;DHT22;16946;49.984;10.672;2023-11-18T00:00:14;-0.30;99.90
30134;DHT22;16946;49.984;10.672;2023-11-18T00:00:47;-0.30;99.90
30134;DHT22;16946;49.984;10.672;2023-11-18T00:01:17;-0.30;99.90
30134;DHT22;16946;49.984;10.672;2023-11-18T00:01:48;-0.30;99.90
30134;DHT22;16946;49.984;10.672;2023-11-18T00:02:19;-0.30;99.90
30134;DHT22;16946;49.984;10.672;2023-11-18T00:02:50;-0.30;99.90
30134;DHT22;16946;49.984;10.672;2023-11-18T00:03:20;-0.20;99.90
30134;DHT22;16946;49.984;10.672;2023-11-18T00:03:51;-0.20;99.90
30134;DHT22;16946;49.984;10.672;2023-11-18T00:04:21;-0.30;99.90
30134;DHT22;16946;49.984;10.672;2023-11-18T00:04:52;-0.20;99.90
30134;DHT22;16946;49.984;10.672;2023-11-18T00:05:23;-0.20;99.90
30134;DHT22;16946;49.984;10.672;2023-11-18T00:05:54;-0.20;99.90
30134;DHT22;16946;49.984;10.672;2023-11-18T00:06:24;-0.20;99.90
30134;DHT22;16946;49.984;10.672;2023-11-18T00:06:55;-0.30;99.90
30134;DHT22;16946;49.984;10.672;2023-11-18T00:07:27;-0.30;99.90
30134;DHT22;16946;49.984;10.672;2023-11-18T00:07:59;-0.20;99.90
30134;DHT22;16946;49.984;10.672;2023-11-18T00:08:30;-0.20;99.90
30134;DHT22;16946;49.984;10.672;2023-11-18T00:09:01;-0.20;99.90
30134;DHT22;16946;49.984;10.672;2023-11-18T00:09:31;-0.20;99.90
30134;DHT22;16946;49.984;10.672;2023-11-18T00:10:03;-0.20;99.90
30134;DHT22;16946;49.984;10.672;2023-11-18T00:10:34;-0.20;99.90
30134;DHT22;16946;49.984;10.672;2023-11-18T00:11:05;-0.30;99.90
30134;DHT22;16946;49.984;10.672;2023-11-18T00:11:35;-0.30;99.90
30134;DHT22;16946;49.984;10.672;2023-11-18T00:12:06;-0.30;99.90
30134;DHT22;16946;49.984;10.672;2023-11-18T00:12:37;-0.30;99.90
30134;DHT22;16946;49.984;10.672;2023-11-18T00:13:11;-0.30;99.90
30134;DHT22;16946;49.984;10.672;2023-11-18T00:13:42;-0.30;99.90
30134;DHT22;16946;49.984;10.672;2023-11-18T00:14:12;-0.30;99.90
30134;DHT22;16946;49.984;10.672;2023-11-18T00:14:43;-0.30;99.90
30134;DHT22;16946;49.984;10.672;2023-11-18T00:15:15;-0.30;99.90
30134;DHT22;16946;49.984;10.672;2023-11-18T00:15:46;-0.30;99.90
30134;DHT22;16946;49.984;10.672;2023-11-18T00:16:18;-0.20;99.90
30134;DHT22;16946;49.984;10.672;2023-11-18T00:16:49;-0.30;99.90
30134;DHT22;16946;49.984;10.672;2023-11-18T00:17:20;-0.30;99.90
30134;DHT22;16946;49.984;10.672;2023-11-18T00:17:50;-0.20;99.90
30134;DHT22;16946;49.984;10.672;2023-11-18T00:18:23;-0.20;99.90
30134;DHT22;16946;49.984;10.672;2023-11-18T00:18:53;-0.20;99.90
30134;DHT22;16946;49.984;10.672;2023-11-18T00:19:24;-0.20;99.90
30134;DHT22;16946;49.984;10.672;2023-11-18T00:19:54;-0.20;99.90
30134;DHT22;16946;49.984;10.672;2023-11-18T00:20:25;-0.20;99.90
30134;DHT22;16946;49.984;10.672;2023-11-18T00:20:56;-0.30;99.90
30134;DHT22;16946;49.984;10.672;2023-11-18T00:21:27;-0.30;99.90
30134;DHT22;16946;49.984;10.672;2023-11-18T00:21:58;-0.40;99.90
30134;DHT22;16946;49.984;10.672;2023-11-18T00:22:28;-0.50;99.90
30134;DHT22;16946;49.984;10.672;2023-11-18T00:22:59;-0.50;99.90
30134;DHT22;16946;49.984;10.672;2023-11-18T00:23:29;-0.50;99.90
30134;DHT22;16946;49.984;10.672;2023-11-18T00:24:00;-0.50;99.90
30134;DHT22;16946;49.984;10.672;2023-11-18T00:24:31;-0.50;99.90
30134;DHT22;16946;49.984;10.672;2023-11-18T00:25:05;-0.50;99.90
30134;DHT22;16946;49.984;10.672;2023-11-18T00:25:35;-0.60;99.90
30134;DHT22;16946;49.984;10.672;2023-11-18T00:26:06;-0.50;99.90
30134;DHT22;16946;49.984;10.672;2023-11-18T00:26:37;-0.50;99.90
30134;DHT22;16946;49.984;10.672;2023-11-18T00:27:07;-0.50;99.90
30134;DHT22;16946;49.984;10.672;2023-11-18T00:27:38;-0.50;99.90
30134;DHT22;16946;49.984;10.672;2023-11-18T00:28:09;-0.50;99.90
30134;DHT22;16946;49.984;10.672;2023-11-18T00:28:39;-0.50;99.90
30134;DHT22;16946;49.984;10.672;2023-11-18T00:29:10;-0.50;99.90
30134;DHT22;16946;49.984;10.672;2023-11-18T00:29:41;-0.50;99.90
30134;DHT22;16946;49.984;10.672;2023-11-18T00:30:14;-0.50;99.90
30134;DHT22;16946;49.984;10.672;2023-11-18T00:30:44;-0.50;99.90
30134;DHT22;16946;49.984;10.672;2023-11-18T00:31:15;-0.50;99.90
30134;DHT22;16946;49.984;10.672;2023-11-18T00:31:45;-0.40;99.90
30134;DHT22;16946;49.984;10.672;2023-11-18T00:32:16;-0.40;99.90
30134;DHT22;16946;49.984;10.672;2023-11-18T00:32:47;-0.40;99.90
30134;DHT22;16946;49.984;10.672;2023-11-18T00:33:18;-0.40;99.90
30134;DHT22;16946;49.984;10.672;2023-11-18T00:33:48;-0.50;99.90
30134;DHT22;16946;49.984;10.672;2023-11-18T00:34:19;-0.40;99.90
30134;DHT22;16946;49.984;10.672;2023-11-18T00:34:49;-0.50;99.90
30134;DHT22;16946;49.984;10.672;2023-11-18T00:35:20;-0.50;99.90
30134;DHT22;16946;49.984;10.672;2023-11-18T00:35:50;-0.50;99.90
30134;DHT22;16946;49.984;10.672;2023-11-18T00:36:21;-0.50;99.90
30134;DHT22;16946;49.984;10.672;2023-11-18T00:36:51;-0.50;99.90
30134;DHT22;16946;49.984;10.672;2023-11-18T00:37:22;-0.50;99.90
30134;DHT22;16946;49.984;10.672;2023-11-18T00:37:52;-0.50;99.90
30134;DHT22;16946;49.984;10.672;2023-11-18T00:38:23;-0.40;99.90
30134;DHT22;16946;49.984;10.672;2023-11-18T00:38:53;-0.40;99.90
30134;DHT22;16946;49.984;10.672;2023-11-18T00:39:25;-0.40;99.90
30134;DHT22;16946;49.984;10.672;2023-11-18T00:39:55;-0.50;99.90
30134;DHT22;16946;49.984;10.672;2023-11-18T00:40:26;-0.50;99.90
30134;DHT22;16946;49.984;10.672;2023-11-18T00:40:57;-0.50;99.90
30134;DHT22;16946;49.984;10.672;2023-11-18T00:41:27;-0.50;99.90
30134;DHT22;16946;49.984;10.672;2023-11-18T00:41:58;-0.50;99.90
30134;DHT22;16946;49.984;10.672;2023-11-18T00:42:28;-0.50;99.90
30134;DHT22;16946;49.984;10.672;2023-11-18T00:42:59;-0.60;99.90
30134;DHT22;16946;49.984;10.672;2023-11-18T00:43:29;-0.50;99.90
30134;DHT22;16946;49.984;10.672;2023-11-18T00:44:00;-0.50;99.90
30134;DHT22;16946;49.984;10.672;2023-11-18T00:44:30;-0.50;99.90
30134;DHT22;16946;49.984;10.672;2023-11-18T00:45:01;-0.50;99.90
30134;DHT22;16946;49.984;10.672;2023-11-18T00:45:31;-0.50;99.90
30134;DHT22;16946;49.984;10.672;2023-11-18T00:46:02;-0.50;99.90
30134;DHT22;16946;49.984;10.672;2023-11-18T00:46:34;-0.50;99.90
30134;DHT22;16946;49.984;10.672;2023-11-18T00:47:07;-0.50;99.90
30134;DHT22;16946;49.984;10.672;2023-11-18T00:47:41;-0.60;99.90
30134;DHT22;16946;49.984;10.672;2023-11-18T00:48:11;-0.60;99.90
30134;DHT22;16946;49.984;10.672;2023-11-18T00:48:42;-0.60;99.90
30134;DHT22;16946;49.984;10.672;2023-11-18T00:49:12;-0.70;99.90
30134;DHT22;16946;49.984;10.672;2023-11-18T00:49:43;-0.70;99.90
30134;DHT22;16946;49.984;10.672;2023-11-18T00:50:14;-0.70;99.90
30134;DHT22;16946;49.984;10.672;2023-11-18T00:50:45;-0.70;99.90
30134;DHT22;16946;49.984;10.672;2023-11-18T00:51:16;-0.80;99.90
30134;DHT22;16946;49.984;10.672;2023-11-18T00:51:46;-0.80;99.90
30134;DHT22;16946;49.984;10.672;2023-11-18T00:52:17;-0.70;99.90
30134;DHT22;16946;49.984;10.672;2023-11-18T00:52:49;-0.80;99.90
30134;DHT22;16946;49.984;10.672;2023-11-18T00:53:20;-0.70;99.90
30134;DHT22;16946;49.984;10.672;2023-11-18T00:53:50;-0.70;99.90
30134;DHT22;16946;49.984;10.672;2023-11-18T00:54:21;-0.80;99.90
30134;DHT22;16946;49.984;10.672;2023-11-18T00:54:52;-0.90;99.90
30134;DHT22;16946;49.984;10.672;2023-11-18T00:55:23;-0.90;99.90
30134;DHT22;16946;49.984;10.672;2023-11-18T00:55:53;-0.90;99.90
30134;DHT22;16946;49.984;10.672;2023-11-18T00:56:24;-0.90;99.90
30134;DHT22;16946;49.984;10.672;2023-11-18T00:56:55;-1.00;99.90
30134;DHT22;16946;49.984;10.672;2023-11-18T00:57:27;-1.00;99.90
30134;DHT22;16946;49.984;10.672;2023-11-18T00:57:58;-1.00;99.90
30134;DHT22;16946;49.984;10.672;2023-11-18T00:58:29;-1.00;99.90
30134;DHT22;16946;49.984;10.672;2023-11-18T00:59:00;-1.00;99.90
30134;DHT22;16946;49.984;10.672;2023-11-18T00:59:31;-1.00;99.90
30134;DHT22;16946;49.984;10.672;2023-11-18T01:00:02;-1.00;99.90
30134;DHT22;16946;49.984;10.672;2023-11-18T01:00:33;-1.00;99.90
30134;DHT22;16946;49.984;10.672;2023-11-18T01:01:04;-0.90;99.90
30134;DHT22;16946;49.984;10.672;2023-11-18T01:01:37;-0.90;99.90
30134;DHT22;16946;49.984;10.672;2023-11-18T01:02:07;-0.90;99.90
30134;DHT22;16946;49.984;10.672;2023-11-18T01:02:38;-0.90;99.90
30134;DHT22;16946;49.984;10.672;2023-11-18T01:03:09;-0.90;99.90
30134;DHT22;16946;49.984;10.672;2023-11-18T01:03:40;-0.90;99.90
30134;DHT22;16946;49.984;10.672;2023-11-18T01:04:11;-0.90;99.90
30134;DHT22;16946;49.984;10.672;2023-11-18T01:04:42;-1.00;99.90
30134;DHT22;16946;49.984;10.672;2023-11-18T01:05:12;-1.00;99.90
30134;DHT22;16946;49.984;10.672;2023-11-18T01:05:44;-1.00;99.90
30134;DHT22;16946;49.984;10.672;2023-11-18T01:06:14;-1.00;99.90
30134;DHT22;16946;49.984;10.672;2023-11-18T01:06:45;-1.10;99.90
30134;DHT22;16946;49.984;10.672;2023-11-18T01:07:17;-1.10;99.90
30134;DHT22;16946;49.984;10.672;2023-11-18T01:07:48;-1.20;99.90
30134;DHT22;16946;49.984;10.672;2023-11-18T01:08:20;-1.20;99.90
30134;DHT22;16946;49.984;10.672;2023-11-18T01:08:51;-1.20;99.90
30134;DHT22;16946;49.984;10.672;2023-11-18T01:09:22;-1.10;99.90
30134;DHT22;16946;49.984;10.672;2023-11-18T01:09:52;-1.20;99.90
30134;DHT22;16946;49.984;10.672;2023-11-18T01:10:23;-1.10;99.90
30134;DHT22;16946;49.984;10.672;2023-11-18T01:10:54;-1.10;99.90
30134;DHT22;16946;49.984;10.672;2023-11-18T01:11:24;-1.10;99.90
30134;DHT22;16946;49.984;10.672;2023-11-18T01:11:55;-1.10;99.90
30134;DHT22;16946;49.984;10.672;2023-11-18T01:12:26;-1.10;99.90
30134;DHT22;16946;49.984;10.672;2023-11-18T01:12:56;-1.10;99.90
30134;DHT22;16946;49.984;10.672;2023-11-18T01:13:28;-1.10;99.90
30134;DHT22;16946;49.984;10.672;2023-11-18T01:13:58;-1.10;99.90
30134;DHT22;16946;49.984;10.672;2023-11-18T01:14:29;-1.10;99.90
30134;DHT22;16946;49.984;10.672;2023-11-18T01:15:00;-1.10;99.90
30134;DHT22;16946;49.984;10.672;2023-11-18T01:15:31;-1.10;99.90
30134;DHT22;16946;49.984;10.672;2023-11-18T01:16:02;-1.10;99.90
30134;DHT22;16946;49.984;10.672;2023-11-18T01:16:34;-1.10;99.90
30134;DHT22;16946;49.984;10.672;2023-11-18T01:17:05;-1.10;99.90
30134;DHT22;16946;49.984;10.672;2023-11-18T01:17:36;-1.10;99.90
30134;DHT22;16946;49.984;10.672;2023-11-18T01:18:06;-1.10;99.90
30134;DHT22;16946;49.984;10.672;2023-11-18T01:18:37;-1.10;99.90
30134;DHT22;16946;49.984;10.672;2023-11-18T01:19:09;-1.10;99.90
30134;DHT22;16946;49.984;10.672;2023-11-18T01:19:40;-1.10;99.90
30134;DHT22;16946;49.984;10.672;2023-11-18T01:20:11;-1.00;99.90
30134;DHT22;16946;49.984;10.672;2023-11-18T01:20:43;-1.00;99.90
30134;DHT22;16946;49.984;10.672;2023-11-18T01:21:14;-1.00;99.90
30134;DHT22;16946;49.984;10.672;2023-11-18T01:21:47;-1.00;99.90
30134;DHT22;16946;49.984;10.672;2023-11-18T01:22:18;-0.90;99.90
30134;DHT22;16946;49.984;10.672;2023-11-18T01:22:49;-0.90;99.90
30134;DHT22;16946;49.984;10.672;2023-11-18T01:23:19;-0.90;99.90
30134;DHT22;16946;49.984;10.672;2023-11-18T01:23:50;-0.90;99.90
30134;DHT22;16946;49.984;10.672;2023-11-18T01:24:21;-0.90;99.90
30134;DHT22;16946;49.984;10.672;2023-11-18T01:24:52;-0.90;99.90
30134;DHT22;16946;49.984;10.672;2023-11-18T01:25:23;-0.90;99.90
30134;DHT22;16946;49.984;10.672;2023-11-18T01:25:53;-0.80;99.90
30134;DHT22;16946;49.984;10.672;2023-11-18T01:26:24;-0.90;99.90
30134;DHT22;16946;49.984;10.672;2023-11-18T01:26:55;-0.90;99.90
30134;DHT22;16946;49.984;10.672;2023-11-18T01:27:25;-0.90;99.90
30134;DHT22;16946;49.984;10.672;2023-11-18T01:27:56;-0.90;99.90
30134;DHT22;16946;49.984;10.672;2023-11-18T01:28:26;-0.80;99.90
30134;DHT22;16946;49.984;10.672;2023-11-18T01:28:59;-0.90;99.90
30134;DHT22;16946;49.984;10.672;2023-11-18T01:29:30;-0.90;99.90
30134;DHT22;16946;49.984;10.672;2023-11-18T01:30:01;-0.80;99.90
30134;DHT22;16946;49.984;10.672;2023-11-18T01:30:32;-0.80;99.90
30134;DHT22;16946;49.984;10.672;2023-11-18T01:31:07;-0.80;99.90
30134;DHT22;16946;49.984;10.672;2023-11-18T01:31:40;-0.80;99.90
30134;DHT22;16946;49.984;10.672;2023-11-18T01:32:14;-0.80;99.90
30134;DHT22;16946;49.984;10.672;2023-11-18T01:32:44;-0.80;99.90
30134;DHT22;16946;49.984;10.672;2023-11-18T01:33:16;-0.90;99.90
30134;DHT22;16946;49.984;10.672;2023-11-18T01:33:47;-0.90;99.90
30134;DHT22;16946;49.984;10.672;2023-11-18T01:34:20;-0.90;99.90
30134;DHT22;16946;49.984;10.672;2023-11-18T01:34:54;-0.90;99.90
30134;DHT22;16946;49.984;10.672;2023-11-18T01:35:24;-0.90;99.90
30134;DHT22;16946;49.984;10.672;2023-11-18T01:35:57;-0.90;99.90
30134;DHT22;16946;49.984;10.672;2023-11-18T01:36:27;-0.90;99.90
30134;DHT22;16946;49.984;10.672;2023-11-18T01:36:58;-0.90;99.90
30134;DHT22;16946;49.984;10.672;2023-11-18T01:37:29;-1.00;99.90
30134;DHT22;16946;49.984;10.672;2023-11-18T01:37:59;-0.90;99.90
30134;DHT22;16946;49.984;10.672;2023-11-18T01:38:30;-1.00;99.90
30134;DHT22;16946;49.984;10.672;2023-11-18T01:39:01;-1.00;99.90
30134;DHT22;16946;49.984;10.672;2023-11-18T01:39:31;-1.00;99.90
30134;DHT22;16946;49.984;10.672;2023-11-18T01:40:02;-1.00;99.90
30134;DHT22;16946;49.984;10.672;2023-11-18T01:40:35;-1.00;99.90
30134;DHT22;16946;49.984;10.672;2023-11-18T01:41:07;-1.00;99.90
30134;DHT22;16946;49.984;10.672;2023-11-18T01:41:37;-1.00;99.90
30134;DHT22;16946;49.984;10.672;2023-11-18T01:42:08;-1.00;99.90
30134;DHT22;16946;49.984;10.672;2023-11-18T01:42:42;-1.00;99.90
30134;DHT22;16946;49.984;10.672;2023-11-18T01:43:12;-1.00;99.90
30134;DHT22;16946;49.984;10.672;2023-11-18T01:43:47;-1.00;99.90
30134;DHT22;16946;49.984;10.672;2023-11-18T01:44:18;-1.00;99.90
30134;DHT22;16946;49.984;10.672;2023-11-18T01:44:49;-1.00;99.90
30134;DHT22;16946;49.984;10.672;2023-11-18T01:45:21;-1.00;99.90
30134;DHT22;16946;49.984;10.672;2023-11-18T01:45:52;-1.00;99.90
30134;DHT22;16946;49.984;10.672;2023-11-18T01:46:23;-1.00;99.90
30134;DHT22;16946;49.984;10.672;2023-11-18T01:46:56;-0.90;99.90
30134;DHT22;16946;49.984;10.672;2023-11-18T01:47:26;-0.90;99.90
30134;DHT22;16946;49.984;10.672;2023-11-18T01:47:57;-0.90;99.90
30134;DHT22;16946;49.984;10.672;2023-11-18T01:48:28;-0.90;99.90
30134;DHT22;16946;49.984;10.672;2023-11-18T01:49:00;-0.90;99.90
30134;DHT22;16946;49.984;10.672;2023-11-18T01:49:31;-0.90;99.90
30134;DHT22;16946;49.984;10.672;2023-11-18T01:50:03;-0.90;99.90
30134;DHT22;16946;49.984;10.672;2023-11-18T01:50:38;-0.90;99.90
30134;DHT22;16946;49.984;10.672;2023-11-18T01:51:10;-0.90;99.90
30134;DHT22;16946;49.984;10.672;2023-11-18T01:51:44;-0.90;99.90
30134;DHT22;16946;49.984;10.672;2023-11-18T01:52:15;-0.90;99.90
30134;DHT22;16946;49.984;10.672;2023-11-18T01:52:47;-0.90;99.90
30134;DHT22;16946;49.984;10.672;2023-11-18T01:53:18;-0.90;99.90
30134;DHT22;16946;49.984;10.672;2023-11-18T01:53:49;-0.90;99.90
30134;DHT22;16946;49.984;10.672;2023-11-18T01:54:21;-0.90;99.90
30134;DHT22;16946;49.984;10.672;2023-11-18T01:54:53;-0.90;99.90
30134;DHT22;16946;49.984;10.672;2023-11-18T01:55:25;-0.90;99.90
30134;DHT22;16946;49.984;10.672;2023-11-18T01:55:55;-0.90;99.90
30134;DHT22;16946;49.984;10.672;2023-11-18T01:56:27;-0.80;99.90
30134;DHT22;16946;49.984;10.672;2023-11-18T01:56:58;-0.80;99.90
30134;DHT22;16946;49.984;10.672;2023-11-18T01:57:30;-0.80;99.90
30134;DHT22;16946;49.984;10.672;2023-11-18T01:58:02;-0.80;99.90
30134;DHT22;16946;49.984;10.672;2023-11-18T01:58:39;-0.80;99.90
30134;DHT22;16946;49.984;10.672;2023-11-18T01:59:11;-0.80;99.90
30134;DHT22;16946;49.984;10.672;2023-11-18T01:59:48;-0.80;99.90
30134;DHT22;16946;49.984;10.672;2023-11-18T02:00:19;-0.80;99.90
30134;DHT22;16946;49.984;10.672;2023-11-18T02:00:50;-0.80;99.90
30134;DHT22;16946;49.984;10.672;2023-11-18T02:01:26;-0.80;99.90
30134;DHT22;16946;49.984;10.672;2023-11-18T02:01:58;-0.80;99.90
30134;DHT22;16946;49.984;10.672;2023-11-18T02:02:29;-0.80;99.90
30134;DHT22;16946;49.984;10.672;2023-11-18T02:03:00;-0.80;99.90
30134;DHT22;16946;49.984;10.672;2023-11-18T02:03:30;-0.80;99.90
30134;DHT22;16946;49.984;10.672;2023-11-18T02:04:01;-0.80;99.90
30134;DHT22;16946;49.984;10.672;2023-11-18T02:04:31;-0.80;99.90
30134;DHT22;16946;49.984;10.672;2023-11-18T02:05:02;-0.80;99.90
30134;DHT22;16946;49.984;10.672;2023-11-18T02:05:33;-0.80;99.90
30134;DHT22;16946;49.984;10.672;2023-11-18T02:06:04;-0.70;99.90
30134;DHT22;16946;49.984;10.672;2023-11-18T02:06:36;-0.70;99.90
30134;DHT22;16946;49.984;10.672;2023-11-18T02:07:06;-0.70;99.90
30134;DHT22;16946;49.984;10.672;2023-11-18T02:07:39;-0.70;99.90
30134;DHT22;16946;49.984;10.672;2023-11-18T02:08:10;-0.70;99.90
30134;DHT22;16946;49.984;10.672;2023-11-18T02:08:44;-0.70;99.90
30134;DHT22;16946;49.984;10.672;2023-11-18T02:09:18;-0.70;99.90
30134;DHT22;16946;49.984;10.672;2023-11-18T02:09:49;-0.70;99.90
30134;DHT22;16946;49.984;10.672;2023-11-18T02:10:20;-0.70;99.90
30134;DHT22;16946;49.984;10.672;2023-11-18T02:11:00;-0.70;99.90
30134;DHT22;16946;49.984;10.672;2023-11-18T02:11:37;-0.70;99.90
30134;DHT22;16946;49.984;10.672;2023-11-18T02:12:23;-0.80;99.90
30134;DHT22;16946;49.984;10.672;2023-11-18T02:13:48;-0.80;99.90
30134;DHT22;16946;49.984;10.672;2023-11-18T02:14:20;-0.80;99.90
30134;DHT22;16946;49.984;10.672;2023-11-18T02:14:53;-0.80;99.90
30134;DHT22;16946;49.984;10.672;2023-11-18T02:15:25;-0.80;99.90
30134;DHT22;16946;49.984;10.672;2023-11-18T02:15:57;-0.80;99.90
30134;DHT22;16946;49.984;10.672;2023-11-18T02:16:28;-0.80;99.90
30134;DHT22;16946;49.984;10.672;2023-11-18T02:17:00;-0.80;99.90
30134;DHT22;16946;49.984;10.672;2023-11-18T02:17:33;-0.80;99.90
30134;DHT22;16946;49.984;10.672;2023-11-18T02:18:06;-0.80;99.90
30134;DHT22;16946;49.984;10.672;2023-11-18T02:18:40;-0.80;99.90
30134;DHT22;16946;49.984;10.672;2023-11-18T02:19:20;-0.80;99.90
30134;DHT22;16946;49.984;10.672;2023-11-18T02:19:56;-0.80;99.90
30134;DHT22;16946;49.984;10.672;2023-11-18T02:20:28;-0.80;99.90
30134;DHT22;16946;49.984;10.672;2023-11-18T02:21:00;-0.80;99.90
30134;DHT22;16946;49.984;10.672;2023-11-18T02:21:32;-0.80;99.90
30134;DHT22;16946;49.984;10.672;2023-11-18T02:22:05;-0.80;99.90
30134;DHT22;16946;49.984;10.672;2023-11-18T02:22:37;-0.80;99.90
30134;DHT22;16946;49.984;10.672;2023-11-18T02:23:08;-0.80;99.90
30134;DHT22;16946;49.984;10.672;2023-11-18T02:23:40;-0.70;99.90
30134;DHT22;16946;49.984;10.672;2023-11-18T02:24:31;-0.70;99.90
30134;DHT22;16946;49.984;10.672;2023-11-18T02:25:08;-0.80;99.90
30134;DHT22;16946;49.984;10.672;2023-11-18T02:25:44;-0.80;99.90
30134;DHT22;16946;49.984;10.672;2023-11-18T02:26:24;-0.80;99.90
30134;DHT22;16946;49.984;10.672;2023-11-18T02:26:56;-0.80;99.90
30134;DHT22;16946;49.984;10.672;2023-11-18T02:27:27;-0.80;99.90
30134;DHT22;16946;49.984;10.672;2023-11-18T02:27:57;-0.80;99.90
30134;DHT22;16946;49.984;10.672;2023-11-18T02:28:28;-0.80;99.90
30134;DHT22;16946;49.984;10.672;2023-11-18T02:28:59;-0.70;99.90
30134;DHT22;16946;49.984;10.672;2023-11-18T02:29:34;-0.70;99.90
30134;DHT22;16946;49.984;10.672;2023-11-18T02:30:08;-0.70;99.90
30134;DHT22;16946;49.984;10.672;2023-11-18T02:30:43;-0.70;99.90
30134;DHT22;16946;49.984;10.672;2023-11-18T02:31:19;-0.70;99.90
30134;DHT22;16946;49.984;10.672;2023-11-18T02:31:52;-0.70;99.90
30134;DHT22;16946;49.984;10.672;2023-11-18T02:32:52;-0.80;99.90
30134;DHT22;16946;49.984;10.672;2023-11-18T02:34:16;-0.80;99.90
30134;DHT22;16946;49.984;10.672;2023-11-18T02:34:41;-0.80;99.90
30134;DHT22;16946;49.984;10.672;2023-11-18T02:35:17;-0.80;99.90
30134;DHT22;16946;49.984;10.672;2023-11-18T02:35:52;-0.70;99.90
30134;DHT22;16946;49.984;10.672;2023-11-18T02:36:35;-0.80;99.90
30134;DHT22;16946;49.984;10.672;2023-11-18T02:37:07;-0.70;99.90
30134;DHT22;16946;49.984;10.672;2023-11-18T02:37:40;-0.70;99.90
30134;DHT22;16946;49.984;10.672;2023-11-18T02:38:22;-0.60;99.90
30134;DHT22;16946;49.984;10.672;2023-11-18T02:38:54;-0.70;99.90
30134;DHT22;16946;49.984;10.672;2023-11-18T02:39:31;-0.60;99.90
30134;DHT22;16946;49.984;10.672;2023-11-18T02:40:04;-0.60;99.90
30134;DHT22;16946;49.984;10.672;2023-11-18T02:40:42;-0.50;99.90
30134;DHT22;16946;49.984;10.672;2023-11-18T02:41:15;-0.50;99.90
30134;DHT22;16946;49.984;10.672;2023-11-18T02:41:51;-0.40;99.90
30134;DHT22;16946;49.984;10.672;2023-11-18T02:42:22;-0.40;99.90
30134;DHT22;16946;49.984;10.672;2023-11-18T02:42:54;-0.30;99.90
30134;DHT22;16946;49.984;10.672;2023-11-18T02:43:26;-0.30;99.90
30134;DHT22;16946;49.984;10.672;2023-11-18T02:43:59;-0.30;99.90
30134;DHT22;16946;49.984;10.672;2023-11-18T02:44:30;-0.20;99.90
30134;DHT22;16946;49.984;10.672;2023-11-18T02:45:02;-0.10;99.90
30134;DHT22;16946;49.984;10.672;2023-11-18T02:45:35;-0.10;99.90
30134;DHT22;16946;49.984;10.672;2023-11-18T02:46:09;-0.10;99.90
30134;DHT22;16946;49.984;10.672;2023-11-18T02:46:43;-0.10;99.90
30134;DHT22;16946;49.984;10.672;2023-11-18T02:47:14;-0.10;99.90
30134;DHT22;16946;49.984;10.672;2023-11-18T02:47:46;-0.10;99.90
30134;DHT22;16946;49.984;10.672;2023-11-18T02:48:18;-0.10;99.90
30134;DHT22;16946;49.984;10.672;2023-11-18T02:48:50;-0.10;99.90
30134;DHT22;16946;49.984;10.672;2023-11-18T02:49:24;-0.10;99.90
30134;DHT22;16946;49.984;10.672;2023-11-18T02:49:55;-0.10;99.90
30134;DHT22;16946;49.984;10.672;2023-11-18T02:50:27;-0.10;99.90
30134;DHT22;16946;49.984;10.672;2023-11-18T02:50:58;-0.10;99.90
30134;DHT22;16946;49.984;10.672;2023-11-18T02:51:29;-0.10;99.90
30134;DHT22;16946;49.984;10.672;2023-11-18T02:52:01;-0.20;99.90
30134;DHT22;16946;49.984;10.672;2023-11-18T02:52:32;-0.30;99.90
30134;DHT22;16946;49.984;10.672;2023-11-18T02:53:05;-0.30;99.90
30134;DHT22;16946;49.984;10.672;2023-11-18T02:53:36;-0.40;99.90
30134;DHT22;16946;49.984;10.672;2023-11-18T02:54:07;-0.40;99.90
30134;DHT22;16946;49.984;10.672;2023-11-18T02:54:40;-0.50;99.90
30134;DHT22;16946;49.984;10.672;2023-11-18T02:55:11;-0.40;99.90
30134;DHT22;16946;49.984;10.672;2023-11-18T02:55:41;-0.50;99.90
30134;DHT22;16946;49.984;10.672;2023-11-18T02:56:12;-0.50;99.90
30134;DHT22;16946;49.984;10.672;2023-11-18T02:56:42;-0.50;99.90
30134;DHT22;16946;49.984;10.672;2023-11-18T02:57:13;-0.50;99.90
30134;DHT22;16946;49.984;10.672;2023-11-18T02:57:44;-0.50;99.90
30134;DHT22;16946;49.984;10.672;2023-11-18T02:58:14;-0.50;99.90
30134;DHT22;16946;49.984;10.672;2023-11-18T02:58:47;-0.60;99.90
30134;DHT22;16946;49.984;10.672;2023-11-18T02:59:18;-0.50;99.90
30134;DHT22;16946;49.984;10.672;2023-11-18T02:59:48;-0.60;99.90
30134;DHT22;16946;49.984;10.672;2023-11-18T03:00:20;-0.60;99.90
30134;DHT22;16946;49.984;10.672;2023-11-18T03:00:53;-0.50;99.90
30134;DHT22;16946;49.984;10.672;2023-11-18T03:01:24;-0.50;99.90
30134;DHT22;16946;49.984;10.672;2023-11-18T03:01:55;-0.50;99.90
30134;DHT22;16946;49.984;10.672;2023-11-18T03:02:27;-0.50;99.90
30134;DHT22;16946;49.984;10.672;2023-11-18T03:03:00;-0.50;99.90
30134;DHT22;16946;49.984;10.672;2023-11-18T03:03:30;-0.50;99.90
30134;DHT22;16946;49.984;10.672;2023-11-18T03:04:02;-0.50;99.90
30134;DHT22;16946;49.984;10.672;2023-11-18T03:04:32;-0.50;99.90
30134;DHT22;16946;49.984;10.672;2023-11-18T03:05:03;-0.60;99.90
30134;DHT22;16946;49.984;10.672;2023-11-18T03:05:34;-0.50;99.90
30134;DHT22;16946;49.984;10.672;2023-11-18T03:06:06;-0.50;99.90
30134;DHT22;16946;49.984;10.672;2023-11-18T03:06:37;-0.50;99.90
30134;DHT22;16946;49.984;10.672;2023-11-18T03:07:08;-0.50;99.90
30134;DHT22;16946;49.984;10.672;2023-11-18T03:07:40;-0.40;99.90
30134;DHT22;16946;49.984;10.672;2023-11-18T03:08:11;-0.40;99.90
30134;DHT22;16946;49.984;10.672;2023-11-18T03:08:42;-0.40;99.90
30134;DHT22;16946;49.984;10.672;2023-11-18T03:09:12;-0.40;99.90
30134;DHT22;16946;49.984;10.672;2023-11-18T03:09:44;-0.30;99.90
30134;DHT22;16946;49.984;10.672;2023-11-18T03:10:17;-0.30;99.90
30134;DHT22;16946;49.984;10.672;2023-11-18T03:10:53;-0.30;99.90
30134;DHT22;16946;49.984;10.672;2023-11-18T03:11:24;-0.30;99.90
30134;DHT22;16946;49.984;10.672;2023-11-18T03:11:55;-0.30;99.90
30134;DHT22;16946;49.984;10.672;2023-11-18T03:12:25;-0.30;99.90
30134;DHT22;16946;49.984;10.672;2023-11-18T03:12:57;-0.30;99.90
30134;DHT22;16946;49.984;10.672;2023-11-18T03:13:28;-0.30;99.90
30134;DHT22;16946;49.984;10.672;2023-11-18T03:13:58;-0.40;99.90
30134;DHT22;16946;49.984;10.672;2023-11-18T03:14:29;-0.50;99.90
30134;DHT22;16946;49.984;10.672;2023-11-18T03:14:59;-0.50;99.90
30134;DHT22;16946;49.984;10.672;2023-11-18T03:15:31;-0.60;99.90
30134;DHT22;16946;49.984;10.672;2023-11-18T03:16:02;-0.60;99.90
30134;DHT22;16946;49.984;10.672;2023-11-18T03:16:34;-0.60;99.90
30134;DHT22;16946;49.984;10.672;2023-11-18T03:17:05;-0.60;99.90
30134;DHT22;16946;49.984;10.672;2023-11-18T03:17:40;-0.50;99.90
30134;DHT22;16946;49.984;10.672;2023-11-18T03:18:10;-0.60;99.90
30134;DHT22;16946;49.984;10.672;2023-11-18T03:18:41;-0.60;99.90
30134;DHT22;16946;49.984;10.672;2023-11-18T03:19:12;-0.60;99.90